createdAt,value
2019-04-01T00:01:47.073Z,99.90
2019-04-01T00:04:18.924Z,99.90
2019-04-01T00:06:50.221Z,99.90
2019-04-01T00:09:22.233Z,99.90
2019-04-01T00:11:55.473Z,99.90
2019-04-01T00:14:27.510Z,99.90
2019-04-01T00:16:59.447Z,99.90
2019-04-01T00:19:30.886Z,99.90
2019-04-01T00:22:03.024Z,99.90
2019-04-01T00:24:34.577Z,99.90
2019-04-01T00:27:06.450Z,99.90
2019-04-01T00:29:37.797Z,99.90
2019-04-01T00:32:09.439Z,99.90
2019-04-01T00:34:40.688Z,99.90
2019-04-01T00:37:12.315Z,99.90
2019-04-01T00:39:45.302Z,99.90
2019-04-01T00:42:24.791Z,99.90
2019-04-01T00:44:55.811Z,99.90
2019-04-01T00:47:27.431Z,99.90
2019-04-01T00:49:59.122Z,99.90
2019-04-01T00:52:30.462Z,99.90
2019-04-01T00:55:02.187Z,99.90
2019-04-01T00:57:33.209Z,99.90
2019-04-01T01:00:06.603Z,99.90
2019-04-01T01:02:37.943Z,99.90
2019-04-01T01:05:09.632Z,99.90
2019-04-01T01:07:41.214Z,99.90
2019-04-01T01:10:12.946Z,99.90
2019-04-01T01:12:44.207Z,99.90
2019-04-01T01:15:17.256Z,99.90
2019-04-01T01:17:48.490Z,99.90
2019-04-01T01:20:20.097Z,99.90
2019-04-01T01:22:52.070Z,99.90
2019-04-01T01:25:24.266Z,99.90
2019-04-01T01:27:55.573Z,99.90
2019-04-01T01:30:27.228Z,99.90
2019-04-01T01:32:58.992Z,99.90
2019-04-01T01:35:30.356Z,99.90
2019-04-01T01:38:01.912Z,99.90
2019-04-01T01:40:33.304Z,99.90
2019-04-01T01:43:04.337Z,99.90
2019-04-01T01:45:35.956Z,99.90
2019-04-01T01:48:07.362Z,99.90
2019-04-01T01:50:38.926Z,99.90
2019-04-01T01:53:10.330Z,99.90
2019-04-01T01:55:41.935Z,99.90
2019-04-01T01:58:13.579Z,99.90
2019-04-01T02:00:45.094Z,99.90
2019-04-01T02:03:18.032Z,99.90
2019-04-01T02:05:50.543Z,99.90
2019-04-01T02:08:21.842Z,99.90
2019-04-01T02:10:53.142Z,99.90
2019-04-01T02:13:24.964Z,99.90
2019-04-01T02:15:56.611Z,99.90
2019-04-01T02:18:27.915Z,99.90
2019-04-01T02:20:59.675Z,99.90
2019-04-01T02:23:30.989Z,99.90
2019-04-01T02:26:02.350Z,99.90
2019-04-01T02:28:34.061Z,99.90
2019-04-01T02:31:05.689Z,99.90
2019-04-01T02:33:37.460Z,99.90
2019-04-01T02:36:09.051Z,99.90
2019-04-01T02:38:40.645Z,99.90
2019-04-01T02:41:12.228Z,99.90
2019-04-01T02:43:44.092Z,99.90
2019-04-01T02:46:16.152Z,99.90
2019-04-01T02:48:48.004Z,99.90
2019-04-01T02:51:19.077Z,99.90
2019-04-01T02:53:50.810Z,99.90
2019-04-01T02:56:23.030Z,99.90
2019-04-01T02:58:54.838Z,99.90
2019-04-01T03:01:26.841Z,99.90
2019-04-01T03:03:58.119Z,99.90
2019-04-01T03:06:29.279Z,99.90
2019-04-01T03:09:00.288Z,99.90
2019-04-01T03:11:33.563Z,99.90
2019-04-01T03:14:05.823Z,99.90
2019-04-01T03:16:37.282Z,99.90
2019-04-01T03:19:08.710Z,99.90
2019-04-01T03:21:40.538Z,99.90
2019-04-01T03:24:12.437Z,99.90
2019-04-01T03:26:44.249Z,99.90
2019-04-01T03:29:15.568Z,99.90
2019-04-01T03:31:47.992Z,99.90
2019-04-01T03:34:19.839Z,99.90
2019-04-01T03:36:51.460Z,99.90
2019-04-01T03:39:23.157Z,99.90
2019-04-01T03:41:54.772Z,99.90
2019-04-01T03:44:26.685Z,99.90
2019-04-01T03:46:58.950Z,99.90
2019-04-01T03:49:30.512Z,99.90
2019-04-01T03:52:01.945Z,99.90
2019-04-01T03:54:33.591Z,99.90
2019-04-01T03:57:05.484Z,99.90
2019-04-01T03:59:37.521Z,99.90
2019-04-01T04:02:09.134Z,99.90
2019-04-01T04:04:40.690Z,99.90
2019-04-01T04:07:12.296Z,99.90
2019-04-01T04:09:44.041Z,99.90
2019-04-01T04:12:16.208Z,99.90
2019-04-01T04:14:51.265Z,99.90
2019-04-01T04:17:21.007Z,99.90
2019-04-01T04:19:52.655Z,99.90
2019-04-01T04:22:23.966Z,99.90
2019-04-01T04:24:55.425Z,99.90
2019-04-01T04:27:26.719Z,99.90
2019-04-01T04:29:58.358Z,99.90
2019-04-01T04:32:29.923Z,99.90
2019-04-01T04:35:01.873Z,99.90
2019-04-01T04:37:34.237Z,99.90
2019-04-01T04:40:06.318Z,99.90
2019-04-01T04:42:37.590Z,99.90
2019-04-01T04:45:10.007Z,99.90
2019-04-01T04:47:41.575Z,99.90
2019-04-01T04:50:13.458Z,99.90
2019-04-01T04:52:45.036Z,99.90
2019-04-01T04:55:16.642Z,99.90
2019-04-01T04:57:48.144Z,99.90
2019-04-01T05:00:19.992Z,99.90
2019-04-01T05:02:51.843Z,99.90
2019-04-01T05:05:23.489Z,99.90
2019-04-01T05:07:55.392Z,99.90
2019-04-01T05:10:27.028Z,99.90
2019-04-01T05:13:04.516Z,99.90
2019-04-01T05:15:38.552Z,99.90
2019-04-01T05:18:10.175Z,99.90
2019-04-01T05:20:42.773Z,99.90
2019-04-01T05:23:16.425Z,99.90
2019-04-01T05:25:48.619Z,99.90
2019-04-01T05:28:21.351Z,99.90
2019-04-01T05:30:56.319Z,99.90
2019-04-01T05:33:30.365Z,99.90
2019-04-01T05:36:03.027Z,99.90
2019-04-01T05:38:35.215Z,99.90
2019-04-01T05:41:07.645Z,99.90
2019-04-01T05:43:39.325Z,99.90
2019-04-01T05:46:10.926Z,99.90
2019-04-01T05:48:42.930Z,99.90
2019-04-01T05:51:14.651Z,99.90
2019-04-01T05:53:46.935Z,99.90
2019-04-01T05:56:19.582Z,98.70
2019-04-01T05:58:51.670Z,96.20
2019-04-01T06:01:28.056Z,93.80
2019-04-01T06:03:59.728Z,91.70
2019-04-01T06:06:31.163Z,91.00
2019-04-01T06:09:04.766Z,91.00
2019-04-01T06:11:37.664Z,90.10
2019-04-01T06:15:11.590Z,90.00
2019-04-01T06:17:43.616Z,88.70
2019-04-01T06:20:15.539Z,83.40
2019-04-01T06:22:47.145Z,81.40
2019-04-01T06:25:18.474Z,80.10
2019-04-01T06:27:49.847Z,80.10
2019-04-01T06:30:21.162Z,77.30
2019-04-01T06:32:52.970Z,76.10
2019-04-01T06:35:24.984Z,72.70
2019-04-01T06:37:56.010Z,68.20
2019-04-01T06:40:28.596Z,69.70
2019-04-01T06:43:00.654Z,69.20
2019-04-01T06:45:32.024Z,69.10
2019-04-01T06:48:03.696Z,70.20
2019-04-01T06:50:37.084Z,70.60
2019-04-01T06:53:08.712Z,74.60
2019-04-01T06:55:40.466Z,74.80
2019-04-01T06:58:12.286Z,73.60
2019-04-01T07:00:43.636Z,72.70
2019-04-01T07:03:18.349Z,75.00
2019-04-01T07:05:48.151Z,73.00
2019-04-01T07:08:19.869Z,73.40
2019-04-01T07:10:51.575Z,72.70
2019-04-01T07:13:23.742Z,69.40
2019-04-01T07:15:56.455Z,68.20
2019-04-01T07:18:28.224Z,68.40
2019-04-01T07:21:00.169Z,71.20
2019-04-01T07:23:32.423Z,73.70
2019-04-01T07:26:04.063Z,73.00
2019-04-01T07:28:36.018Z,72.90
2019-04-01T07:31:07.762Z,72.60
2019-04-01T07:33:38.937Z,73.50
2019-04-01T07:36:10.384Z,74.70
2019-04-01T07:38:42.428Z,73.20
2019-04-01T07:41:13.501Z,73.30
2019-04-01T07:43:45.201Z,73.90
2019-04-01T07:46:16.629Z,76.70
2019-04-01T07:48:47.786Z,78.20
2019-04-01T07:51:18.780Z,76.00
2019-04-01T07:53:49.882Z,75.00
2019-04-01T07:56:21.866Z,73.40
2019-04-01T07:58:53.647Z,70.60
2019-04-01T08:01:25.033Z,67.30
2019-04-01T08:03:56.560Z,68.10
2019-04-01T08:06:27.918Z,68.10
2019-04-01T08:08:59.903Z,71.50
2019-04-01T08:11:31.393Z,68.50
2019-04-01T08:14:03.602Z,67.60
2019-04-01T08:16:34.721Z,65.60
2019-04-01T08:19:06.153Z,64.20
2019-04-01T08:21:37.565Z,61.40
2019-04-01T08:24:09.354Z,61.30
2019-04-01T08:26:40.540Z,63.00
2019-04-01T08:29:12.226Z,60.90
2019-04-01T08:31:43.814Z,60.90
2019-04-01T08:34:15.918Z,58.50
2019-04-01T08:36:47.081Z,59.50
2019-04-01T08:39:18.424Z,61.30
2019-04-01T08:41:49.862Z,60.00
2019-04-01T08:44:21.754Z,58.50
2019-04-01T08:46:53.929Z,58.80
2019-04-01T08:49:27.110Z,61.20
2019-04-01T08:51:58.513Z,58.60
2019-04-01T08:54:29.780Z,57.20
2019-04-01T08:57:00.990Z,56.90
2019-04-01T08:59:32.274Z,55.50
2019-04-01T09:02:16.994Z,54.10
2019-04-01T09:04:37.146Z,53.30
2019-04-01T09:07:08.818Z,53.80
2019-04-01T09:09:41.478Z,54.60
2019-04-01T09:12:13.966Z,55.60
2019-04-01T09:14:46.234Z,56.80
2019-04-01T09:17:17.694Z,56.70
2019-04-01T09:19:48.705Z,57.70
2019-04-01T09:22:20.573Z,56.00
2019-04-01T09:24:52.231Z,56.10
2019-04-01T09:27:24.090Z,57.10
2019-04-01T09:29:56.044Z,57.70
2019-04-01T09:32:27.184Z,59.00
2019-04-01T09:34:58.503Z,58.50
2019-04-01T09:37:29.747Z,61.00
2019-04-01T09:40:01.020Z,59.50
2019-04-01T09:42:33.192Z,56.60
2019-04-01T09:45:05.381Z,58.10
2019-04-01T09:47:36.876Z,57.10
2019-04-01T09:50:08.370Z,57.00
2019-04-01T09:52:39.983Z,58.20
2019-04-01T09:55:11.250Z,60.40
2019-04-01T09:57:42.790Z,57.50
2019-04-01T10:00:15.353Z,56.80
2019-04-01T10:02:46.898Z,58.60
2019-04-01T10:05:20.029Z,55.20
2019-04-01T10:07:53.528Z,56.70
2019-04-01T10:10:25.420Z,59.60
2019-04-01T10:12:57.559Z,57.60
2019-04-01T10:15:29.357Z,58.10
2019-04-01T10:18:01.389Z,59.30
2019-04-01T10:20:32.740Z,59.70
2019-04-01T10:23:04.487Z,59.10
2019-04-01T10:25:35.984Z,56.10
2019-04-01T10:28:07.349Z,56.00
2019-04-01T10:30:39.253Z,57.00
2019-04-01T10:33:10.894Z,55.00
2019-04-01T10:35:43.368Z,54.60
2019-04-01T10:38:15.488Z,55.10
2019-04-01T10:40:47.086Z,54.60
2019-04-01T10:43:18.597Z,55.60
2019-04-01T10:45:49.970Z,56.70
2019-04-01T10:48:22.111Z,58.60
2019-04-01T10:50:53.606Z,61.20
2019-04-01T10:53:24.963Z,61.90
2019-04-01T10:55:56.270Z,64.20
2019-04-01T10:58:27.337Z,63.90
2019-04-01T11:00:58.714Z,68.30
2019-04-01T11:03:30.121Z,68.70
2019-04-01T11:06:01.401Z,68.20
2019-04-01T11:08:33.280Z,71.40
2019-04-01T11:11:04.996Z,70.30
2019-04-01T11:13:36.879Z,72.00
2019-04-01T11:16:08.715Z,70.70
2019-04-01T11:18:40.924Z,74.10
2019-04-01T11:21:12.882Z,71.40
2019-04-01T11:23:44.155Z,69.70
2019-04-01T11:26:15.160Z,73.40
2019-04-01T11:28:46.579Z,72.30
2019-04-01T11:31:18.756Z,72.40
2019-04-01T11:33:50.432Z,70.20
2019-04-01T11:36:21.803Z,71.90
2019-04-01T11:38:53.255Z,72.30
2019-04-01T11:41:24.349Z,69.90
2019-04-01T11:43:56.450Z,68.50
2019-04-01T11:46:28.470Z,67.10
2019-04-01T11:48:59.897Z,69.50
2019-04-01T11:51:33.148Z,67.50
2019-04-01T11:54:08.022Z,68.80
2019-04-01T11:56:38.442Z,70.10
2019-04-01T11:59:09.819Z,68.30
2019-04-01T12:01:41.694Z,64.70
2019-04-01T12:04:13.291Z,65.00
2019-04-01T12:06:45.255Z,58.10
2019-04-01T12:09:16.846Z,55.80
2019-04-01T12:11:47.837Z,57.20
2019-04-01T12:14:19.538Z,59.90
2019-04-01T12:16:51.408Z,62.30
2019-04-01T12:19:22.700Z,59.00
2019-04-01T12:21:54.003Z,59.50
2019-04-01T12:24:26.054Z,59.10
2019-04-01T12:26:57.673Z,62.80
2019-04-01T12:29:28.942Z,61.30
2019-04-01T12:32:00.503Z,62.80
2019-04-01T12:34:33.762Z,63.80
2019-04-01T12:37:06.177Z,56.90
2019-04-01T12:39:37.822Z,57.40
2019-04-01T12:42:08.879Z,60.80
2019-04-01T12:44:41.579Z,64.10
2019-04-01T12:47:13.907Z,60.10
2019-04-01T12:49:45.498Z,59.10
2019-04-01T12:52:18.054Z,62.60
2019-04-01T12:54:49.726Z,61.00
2019-04-01T12:57:21.427Z,59.60
2019-04-01T12:59:53.606Z,61.40
2019-04-01T13:02:25.546Z,61.90
2019-04-01T13:04:57.316Z,59.90
2019-04-01T13:07:29.088Z,57.90
2019-04-01T13:10:01.059Z,56.00
2019-04-01T13:12:32.684Z,55.30
2019-04-01T13:15:04.611Z,55.90
2019-04-01T13:17:35.888Z,58.20
2019-04-01T13:20:08.560Z,59.20
2019-04-01T13:22:40.317Z,57.30
2019-04-01T13:25:12.029Z,56.70
2019-04-01T13:27:44.175Z,57.60
2019-04-01T13:30:16.108Z,57.70
2019-04-01T13:32:48.950Z,57.80
2019-04-01T13:35:21.005Z,57.20
2019-04-01T13:37:53.062Z,56.90
2019-04-01T13:40:24.494Z,56.40
2019-04-01T13:42:55.806Z,56.90
2019-04-01T13:45:31.568Z,58.20
2019-04-01T13:48:01.110Z,59.00
2019-04-01T13:50:33.594Z,58.60
2019-04-01T13:53:04.850Z,58.30
2019-04-01T13:55:37.452Z,59.20
2019-04-01T13:58:10.884Z,57.40
2019-04-01T14:00:42.389Z,56.00
2019-04-01T14:03:14.275Z,55.80
2019-04-01T14:05:46.121Z,58.50
2019-04-01T14:08:17.535Z,57.00
2019-04-01T14:10:49.138Z,56.90
2019-04-01T14:13:21.002Z,54.10
2019-04-01T14:15:52.648Z,53.50
2019-04-01T14:18:24.564Z,54.60
2019-04-01T14:20:56.401Z,54.30
2019-04-01T14:23:28.025Z,55.70
2019-04-01T14:25:59.434Z,55.90
2019-04-01T14:28:31.339Z,55.30
2019-04-01T14:31:02.596Z,56.40
2019-04-01T14:33:34.607Z,56.50
2019-04-01T14:36:06.220Z,55.90
2019-04-01T14:38:37.288Z,56.00
2019-04-01T14:41:09.065Z,55.40
2019-04-01T14:43:40.658Z,55.60
2019-04-01T14:46:12.907Z,56.30
2019-04-01T14:48:44.475Z,57.00
2019-04-01T14:51:16.337Z,56.70
2019-04-01T14:53:47.678Z,57.40
2019-04-01T14:56:19.031Z,56.80
2019-04-01T14:58:50.904Z,56.30
2019-04-01T15:01:22.542Z,55.60
2019-04-01T15:03:54.510Z,54.80
2019-04-01T15:06:26.054Z,55.30
2019-04-01T15:08:57.958Z,55.90
2019-04-01T15:11:28.959Z,56.00
2019-04-01T15:14:00.817Z,56.40
2019-04-01T15:16:32.108Z,56.20
2019-04-01T15:19:03.511Z,55.30
2019-04-01T15:21:34.596Z,56.00
2019-04-01T15:24:06.297Z,57.20
2019-04-01T15:26:37.965Z,56.40
2019-04-01T15:29:09.300Z,55.90
2019-04-01T15:31:40.927Z,56.20
2019-04-01T15:34:13.000Z,56.50
2019-04-01T15:36:44.668Z,57.30
2019-04-01T15:39:16.543Z,56.30
2019-04-01T15:41:47.537Z,57.60
2019-04-01T15:44:19.340Z,58.00
2019-04-01T15:46:50.668Z,57.50
2019-04-01T15:49:23.449Z,57.30
2019-04-01T15:51:54.798Z,57.40
2019-04-01T15:54:26.374Z,57.60
2019-04-01T15:56:58.627Z,57.10
2019-04-01T15:59:30.292Z,56.70
2019-04-01T16:02:02.947Z,54.80
2019-04-01T16:04:34.639Z,55.30
2019-04-01T16:07:05.764Z,56.20
2019-04-01T16:09:37.390Z,54.50
2019-04-01T16:12:09.310Z,52.20
2019-04-01T16:14:40.539Z,51.50
2019-04-01T16:17:11.768Z,51.80
2019-04-01T16:19:43.185Z,52.20
2019-04-01T16:22:14.465Z,50.20
2019-04-01T16:24:45.835Z,50.30
2019-04-01T16:27:17.076Z,50.50
2019-04-01T16:29:48.216Z,51.10
2019-04-01T16:32:19.568Z,50.80
2019-04-01T16:34:50.855Z,51.30
2019-04-01T16:37:22.412Z,51.90
2019-04-01T16:39:54.654Z,51.40
2019-04-01T16:42:26.754Z,51.90
2019-04-01T16:44:58.199Z,52.10
2019-04-01T16:47:30.193Z,53.00
2019-04-01T16:50:01.516Z,53.70
2019-04-01T16:52:33.206Z,54.40
2019-04-01T16:55:06.913Z,55.30
2019-04-01T16:57:38.842Z,55.70
2019-04-01T17:00:14.644Z,56.40
2019-04-01T17:02:45.662Z,55.40
2019-04-01T17:05:19.719Z,55.10
2019-04-01T17:07:51.269Z,55.40
2019-04-01T17:10:23.761Z,55.20
2019-04-01T17:12:55.738Z,55.50
2019-04-01T17:15:27.410Z,56.50
2019-04-01T17:17:59.778Z,57.00
2019-04-01T17:20:31.393Z,57.40
2019-04-01T17:23:02.509Z,57.30
2019-04-01T17:25:34.139Z,58.50
2019-04-01T17:28:05.355Z,58.80
2019-04-01T17:30:36.932Z,58.60
2019-04-01T17:33:08.915Z,58.70
2019-04-01T17:35:41.857Z,58.90
2019-04-01T17:38:13.945Z,59.20
2019-04-01T17:40:46.145Z,59.50
2019-04-01T17:43:17.858Z,60.00
2019-04-01T17:45:49.289Z,59.90
2019-04-01T17:48:20.557Z,60.30
2019-04-01T17:50:52.116Z,59.70
2019-04-01T17:53:23.511Z,59.90
2019-04-01T17:55:55.126Z,59.60
2019-04-01T17:58:26.936Z,59.90
2019-04-01T18:01:00.368Z,60.60
2019-04-01T18:03:34.053Z,61.00
2019-04-01T18:06:05.928Z,61.50
2019-04-01T18:08:36.939Z,62.20
2019-04-01T18:11:08.169Z,63.30
2019-04-01T18:13:40.278Z,63.30
2019-04-01T18:16:12.158Z,63.20
2019-04-01T18:18:44.662Z,63.70
2019-04-01T18:21:16.529Z,63.70
2019-04-01T18:23:48.370Z,64.00
2019-04-01T18:26:19.640Z,64.50
2019-04-01T18:28:50.907Z,64.70
2019-04-01T18:31:22.584Z,65.30
2019-04-01T18:33:56.494Z,66.00
2019-04-01T18:36:27.662Z,66.60
2019-04-01T18:38:59.283Z,66.30
2019-04-01T18:41:31.132Z,66.90
2019-04-01T18:44:02.654Z,69.00
2019-04-01T18:46:34.439Z,69.10
2019-04-01T18:49:06.206Z,70.20
2019-04-01T18:51:37.825Z,70.50
2019-04-01T18:54:09.414Z,70.90
2019-04-01T18:56:41.183Z,71.50
2019-04-01T18:59:12.789Z,70.70
2019-04-01T19:01:44.210Z,71.00
2019-04-01T19:04:16.409Z,71.70
2019-04-01T19:06:49.837Z,72.40
2019-04-01T19:09:21.290Z,73.00
2019-04-01T19:12:03.250Z,74.20
2019-04-01T19:14:26.339Z,74.00
2019-04-01T19:16:57.871Z,73.60
2019-04-01T19:19:29.629Z,73.70
2019-04-01T19:22:00.938Z,74.70
2019-04-01T19:24:32.897Z,75.90
2019-04-01T19:27:04.623Z,76.30
2019-04-01T19:29:36.377Z,76.60
2019-04-01T19:32:09.425Z,76.90
2019-04-01T19:34:41.118Z,78.40
2019-04-01T19:37:13.455Z,79.30
2019-04-01T19:39:45.567Z,79.50
2019-04-01T19:42:18.066Z,79.40
2019-04-01T19:44:49.386Z,79.80
2019-04-01T19:47:20.722Z,80.50
2019-04-01T19:49:52.997Z,80.50
2019-04-01T19:52:25.358Z,80.30
2019-04-01T19:54:57.641Z,80.00
2019-04-01T19:57:29.017Z,80.40
2019-04-01T20:00:00.598Z,81.40
2019-04-01T20:02:34.132Z,81.50
2019-04-01T20:05:05.014Z,81.90
2019-04-01T20:07:36.928Z,82.40
2019-04-01T20:10:08.452Z,83.00
2019-04-01T20:12:41.161Z,83.20
2019-04-01T20:15:13.732Z,83.50
2019-04-01T20:17:44.883Z,84.30
2019-04-01T20:20:16.489Z,85.50
2019-04-01T20:22:48.057Z,86.50
2019-04-01T20:25:19.723Z,87.30
2019-04-01T20:27:50.988Z,87.90
2019-04-01T20:30:23.300Z,88.20
2019-04-01T20:32:55.520Z,88.90
2019-04-01T20:35:27.271Z,88.40
2019-04-01T20:37:59.927Z,89.00
2019-04-01T20:40:31.580Z,89.00
2019-04-01T20:43:02.663Z,89.50
2019-04-01T20:45:34.511Z,90.10
2019-04-01T20:48:06.725Z,90.50
2019-04-01T20:50:38.555Z,90.70
2019-04-01T20:53:10.424Z,90.90
2019-04-01T20:55:48.325Z,91.10
2019-04-01T20:58:15.197Z,91.30
2019-04-01T21:00:46.747Z,91.80
2019-04-01T21:03:18.299Z,92.00
2019-04-01T21:05:50.184Z,92.00
2019-04-01T21:08:21.759Z,92.40
2019-04-01T21:10:53.286Z,92.80
2019-04-01T21:13:25.094Z,93.50
2019-04-01T21:15:56.368Z,94.20
2019-04-01T21:18:28.262Z,94.70
2019-04-01T21:20:59.770Z,94.20
2019-04-01T21:23:32.327Z,93.30
2019-04-01T21:26:03.923Z,92.70
2019-04-01T21:28:35.215Z,92.00
2019-04-01T21:31:06.619Z,91.80
2019-04-01T21:33:37.781Z,91.30
2019-04-01T21:36:09.346Z,91.10
2019-04-01T21:38:40.595Z,91.00
2019-04-01T21:41:12.360Z,90.90
2019-04-01T21:43:43.711Z,90.60
2019-04-01T21:46:14.705Z,90.70
2019-04-01T21:48:46.251Z,90.50
2019-04-01T21:51:17.843Z,90.60
2019-04-01T21:53:49.464Z,90.40
2019-04-01T21:56:21.053Z,90.50
2019-04-01T21:58:52.553Z,90.50
2019-04-01T22:01:25.284Z,91.10
2019-04-01T22:03:56.936Z,90.80
2019-04-01T22:06:28.594Z,90.90
2019-04-01T22:09:00.101Z,91.30
2019-04-01T22:11:31.410Z,91.20
2019-04-01T22:14:02.699Z,91.30
2019-04-01T22:16:34.288Z,91.50
2019-04-01T22:19:05.837Z,91.50
2019-04-01T22:21:37.919Z,91.90
2019-04-01T22:24:08.912Z,91.80
2019-04-01T22:26:40.511Z,92.00
2019-04-01T22:29:12.415Z,92.50
2019-04-01T22:31:44.182Z,92.90
2019-04-01T22:34:15.723Z,93.30
2019-04-01T22:36:47.458Z,94.20
2019-04-01T22:39:26.983Z,94.70
2019-04-01T22:41:52.921Z,95.40
2019-04-01T22:44:24.512Z,96.00
2019-04-01T22:46:55.784Z,96.50
2019-04-01T22:49:27.291Z,97.00
2019-04-01T22:51:58.886Z,97.80
2019-04-01T22:54:30.238Z,98.70
2019-04-01T22:57:03.809Z,99.00
2019-04-01T22:59:35.705Z,99.60
2019-04-01T23:02:07.366Z,99.90
2019-04-01T23:04:40.054Z,99.90
2019-04-01T23:07:12.120Z,99.90
2019-04-01T23:09:44.024Z,99.90
2019-04-01T23:12:15.018Z,99.90
2019-04-01T23:14:46.861Z,99.90
2019-04-01T23:17:18.489Z,99.90
2019-04-01T23:19:50.038Z,99.90
2019-04-01T23:22:21.578Z,99.90
2019-04-01T23:24:53.162Z,99.90
2019-04-01T23:27:24.709Z,99.90
2019-04-01T23:29:56.244Z,99.90
2019-04-01T23:32:27.534Z,99.90
2019-04-01T23:34:59.169Z,99.90
2019-04-01T23:37:30.517Z,99.90
2019-04-01T23:40:03.372Z,99.90
2019-04-01T23:42:37.698Z,99.90
2019-04-01T23:45:08.837Z,99.90
2019-04-01T23:47:40.608Z,99.90
2019-04-01T23:50:12.294Z,99.90
2019-04-01T23:52:43.881Z,99.90
2019-04-01T23:55:15.814Z,99.90
2019-04-01T23:57:47.443Z,99.90
